Time;durP1;ratioP1;P1;durP2;ratioP2;P2;SDS_P1;SDS_P2;PMS_P1;PMS_P2;Temp;Humidity;BMP_temperature;BMP_pressure;BME280_temperature;BME280_humidity;BME280_pressure;Samples;Min_cycle;Max_cycle;Signal;HPM_P1;HPM_P2
2024/04/01 00:00:31;;;;;;;4.75;2.83;;;12.30;91.20;;;;;;5030762;28;20120;-65
2024/04/01 00:02:57;;;;;;;6.05;3.30;;;12.30;91.10;;;;;;5031585;28;20032;-66
2024/04/01 00:05:22;;;;;;;4.45;2.72;;;12.30;91.20;;;;;;5034318;28;20026;-65
2024/04/01 00:07:51;;;;;;;4.55;2.70;;;12.30;91.20;;;;;;5026179;28;20030;-65
2024/04/01 00:10:17;;;;;;;4.63;2.65;;;12.30;91.10;;;;;;5029781;28;20144;-66
2024/04/01 00:12:43;;;;;;;4.45;2.58;;;12.30;91.10;;;;;;5029832;28;20036;-65
2024/04/01 00:15:09;;;;;;;5.20;2.47;;;12.30;91.00;;;;;;5032073;28;20029;-66
2024/04/01 00:17:34;;;;;;;3.50;2.35;;;12.30;91.10;;;;;;5031868;28;20036;-65
2024/04/01 00:20:00;;;;;;;3.88;2.58;;;12.30;91.00;;;;;;5031316;28;20021;-65
2024/04/01 00:22:25;;;;;;;3.53;2.38;;;12.30;91.10;;;;;;5030525;28;20454;-65
2024/04/01 00:24:51;;;;;;;4.40;2.50;;;12.30;91.10;;;;;;5031991;28;20365;-65
2024/04/01 00:27:16;;;;;;;4.82;2.65;;;12.20;91.00;;;;;;5031320;28;20233;-65
2024/04/01 00:29:42;;;;;;;3.78;2.53;;;12.20;91.00;;;;;;5027067;28;20033;-66
2024/04/01 00:32:07;;;;;;;3.40;2.90;;;12.20;91.00;;;;;;5026479;28;20039;-65
2024/04/01 00:34:33;;;;;;;3.58;2.45;;;12.20;91.00;;;;;;5028838;28;20072;-66
2024/04/01 00:36:59;;;;;;;3.25;2.22;;;12.20;91.00;;;;;;5030533;28;20035;-65
2024/04/01 00:39:24;;;;;;;3.55;2.38;;;12.20;91.00;;;;;;5027711;28;20036;-65
2024/04/01 00:41:50;;;;;;;3.67;2.30;;;12.20;91.00;;;;;;5026001;28;20109;-67
2024/04/01 00:44:15;;;;;;;2.70;2.10;;;12.20;90.90;;;;;;5031019;28;20049;-66
2024/04/01 00:46:41;;;;;;;2.35;2.15;;;12.20;90.90;;;;;;5030842;28;20017;-64
2024/04/01 00:49:07;;;;;;;3.22;2.30;;;12.20;90.90;;;;;;5029450;28;20373;-65
2024/04/01 00:51:33;;;;;;;4.85;2.30;;;12.10;90.90;;;;;;5037352;28;20037;-66
2024/04/01 00:54:01;;;;;;;3.83;2.60;;;12.10;91.00;;;;;;5033064;28;20029;-66
2024/04/01 00:56:27;;;;;;;3.40;2.42;;;12.20;91.00;;;;;;5035417;28;20026;-65
2024/04/01 00:58:53;;;;;;;3.70;2.17;;;12.20;90.90;;;;;;5033300;28;20152;-65
2024/04/01 01:01:20;;;;;;;3.55;2.15;;;12.20;90.80;;;;;;5030191;28;20017;-65
2024/04/01 01:03:46;;;;;;;3.35;2.35;;;12.20;90.80;;;;;;5031574;28;20022;-64
2024/04/01 01:06:16;;;;;;;3.35;2.40;;;12.20;90.70;;;;;;5033049;28;20503;-65
2024/04/01 01:08:43;;;;;;;4.80;2.40;;;12.20;90.70;;;;;;5029100;28;20104;-65
2024/04/01 01:11:09;;;;;;;3.78;2.40;;;12.20;90.70;;;;;;5031090;28;20018;-65
2024/04/01 01:13:35;;;;;;;3.35;2.10;;;12.20;90.70;;;;;;5031320;28;20488;-64
2024/04/01 01:16:01;;;;;;;3.22;2.30;;;12.10;90.70;;;;;;5031757;28;20033;-66
2024/04/01 01:18:26;;;;;;;2.80;1.88;;;12.10;90.70;;;;;;5024590;28;20037;-65
2024/04/01 01:20:52;;;;;;;3.42;2.25;;;12.10;90.70;;;;;;5032464;28;20037;-67
2024/04/01 01:23:17;;;;;;;3.35;2.28;;;12.10;90.70;;;;;;5025393;28;20087;-65
2024/04/01 01:25:43;;;;;;;3.33;2.28;;;12.10;90.70;;;;;;5029122;28;20021;-64
2024/04/01 01:28:09;;;;;;;2.97;2.15;;;12.10;90.70;;;;;;5036863;28;20023;-64
2024/04/01 01:30:37;;;;;;;3.08;2.10;;;12.10;90.70;;;;;;5031424;28;20476;-66
2024/04/01 01:33:06;;;;;;;3.38;2.28;;;12.10;90.70;;;;;;5035719;28;20147;-66
2024/04/01 01:35:36;;;;;;;5.05;2.10;;;12.10;90.70;;;;;;5028282;28;20110;-65
2024/04/01 01:38:03;;;;;;;3.90;2.17;;;12.10;90.60;;;;;;5030800;28;20388;-65
2024/04/01 01:40:29;;;;;;;3.25;1.90;;;12.10;90.60;;;;;;5035014;28;20033;-64
2024/04/01 01:42:55;;;;;;;3.28;1.90;;;12.10;90.60;;;;;;5034594;28;20021;-66
2024/04/01 01:45:20;;;;;;;3.10;2.20;;;12.10;90.60;;;;;;5036593;28;20030;-66
2024/04/01 01:47:46;;;;;;;2.92;2.13;;;12.00;90.60;;;;;;5036141;28;20395;-65
2024/04/01 01:50:11;;;;;;;3.20;1.88;;;12.00;90.60;;;;;;5042564;28;20030;-65
2024/04/01 01:52:37;;;;;;;3.88;2.28;;;11.90;90.60;;;;;;5033454;28;20100;-65
2024/04/01 01:55:04;;;;;;;3.58;2.25;;;11.90;90.70;;;;;;5032867;28;20405;-65
2024/04/01 01:57:30;;;;;;;3.22;2.28;;;11.90;90.70;;;;;;5025072;28;20032;-65
2024/04/01 01:59:56;;;;;;;2.50;2.10;;;11.90;90.70;;;;;;5031037;28;20029;-67
2024/04/01 02:02:22;;;;;;;2.60;1.90;;;11.90;90.80;;;;;;5034634;28;20020;-66
2024/04/01 02:04:48;;;;;;;2.42;1.90;;;11.90;90.70;;;;;;5034752;28;20514;-65
2024/04/01 02:07:13;;;;;;;4.63;2.13;;;11.90;90.70;;;;;;5040937;28;20030;-65
2024/04/01 02:09:39;;;;;;;3.47;2.15;;;11.90;90.70;;;;;;5029260;28;20075;-65
2024/04/01 02:12:08;;;;;;;3.53;2.10;;;11.90;90.70;;;;;;5027835;28;20089;-64
2024/04/01 02:14:37;;;;;;;3.08;2.03;;;11.90;90.70;;;;;;5029785;28;20017;-64
2024/04/01 02:17:09;;;;;;;3.53;1.77;;;12.00;90.70;;;;;;5037867;28;20017;-64
2024/04/01 02:19:35;;;;;;;2.60;1.90;;;11.90;90.60;;;;;;5042260;28;20029;-64
2024/04/01 02:22:01;;;;;;;3.38;2.03;;;11.90;90.60;;;;;;5034140;28;20026;-65
2024/04/01 02:24:27;;;;;;;2.28;1.80;;;11.90;90.60;;;;;;5036972;28;20380;-64
2024/04/01 02:26:53;;;;;;;3.30;1.75;;;11.90;90.60;;;;;;5037970;28;20028;-65
2024/04/01 02:29:19;;;;;;;2.85;1.65;;;11.90;90.70;;;;;;5033649;28;20033;-65
2024/04/01 02:31:44;;;;;;;2.42;1.77;;;11.90;90.70;;;;;;5032919;28;20021;-65
2024/04/01 02:34:10;;;;;;;2.28;2.00;;;11.90;90.60;;;;;;5031748;28;20022;-65
2024/04/01 02:36:36;;;;;;;3.42;2.20;;;11.90;90.70;;;;;;5032799;28;20037;-65
2024/04/01 02:39:03;;;;;;;3.20;2.17;;;11.90;90.70;;;;;;5029752;28;20471;-65
2024/04/01 02:41:28;;;;;;;3.42;2.30;;;11.80;90.70;;;;;;5034938;28;20032;-65
2024/04/01 02:43:54;;;;;;;4.30;2.42;;;11.90;90.90;;;;;;5034141;28;20021;-65
2024/04/01 02:46:20;;;;;;;3.90;2.28;;;11.80;90.70;;;;;;5038803;28;21037;-65
2024/04/01 02:48:45;;;;;;;2.33;1.80;;;11.80;90.60;;;;;;5032309;28;20044;-64
2024/04/01 02:51:11;;;;;;;2.40;2.00;;;11.80;90.60;;;;;;5029607;28;20058;-65
2024/04/01 02:53:47;;;;;;;4.25;2.10;;;11.80;90.60;;;;;;5030847;28;20037;-66
2024/04/01 02:56:13;;;;;;;1.92;1.58;;;11.80;90.60;;;;;;5043839;28;20021;-65
2024/04/01 02:58:40;;;;;;;2.75;1.73;;;11.80;90.60;;;;;;5041068;28;20492;-65
2024/04/01 03:01:07;;;;;;;2.55;1.60;;;11.80;90.50;;;;;;5027844;28;20033;-65
2024/04/01 03:03:32;;;;;;;3.13;1.90;;;11.80;90.50;;;;;;5032997;28;20021;-65
2024/04/01 03:05:58;;;;;;;1.98;1.77;;;11.80;90.60;;;;;;5033293;28;20699;-65
2024/04/01 03:08:23;;;;;;;2.00;1.80;;;11.80;90.60;;;;;;5029226;28;20644;-65
2024/04/01 03:11:00;;;;;;;2.92;2.10;;;11.80;90.50;;;;;;5027009;28;20029;-65
2024/04/01 03:13:26;;;;;;;2.45;2.00;;;11.70;90.50;;;;;;5030185;28;20124;-65
2024/04/01 03:15:53;;;;;;;2.47;1.70;;;11.80;90.80;;;;;;5033521;28;20713;-65
2024/04/01 03:18:19;;;;;;;1.90;1.45;;;11.80;90.50;;;;;;5035717;28;20096;-65
2024/04/01 03:20:46;;;;;;;1.52;1.25;;;11.80;90.50;;;;;;5039764;28;20021;-65
2024/04/01 03:23:13;;;;;;;1.55;1.20;;;11.70;90.50;;;;;;5037615;28;20021;-67
2024/04/01 03:25:38;;;;;;;2.10;1.20;;;11.80;90.50;;;;;;5041259;28;20021;-65
2024/04/01 03:28:04;;;;;;;1.80;1.33;;;11.70;90.50;;;;;;5034732;28;20021;-66
2024/04/01 03:30:30;;;;;;;2.40;1.58;;;11.70;90.50;;;;;;5028192;28;20035;-65
2024/04/01 03:32:55;;;;;;;2.05;1.30;;;11.70;90.60;;;;;;5029478;28;20335;-65
2024/04/01 03:35:21;;;;;;;1.52;1.17;;;11.70;90.50;;;;;;5040528;28;20025;-65
2024/04/01 03:37:46;;;;;;;2.40;1.50;;;11.70;90.50;;;;;;5042340;28;20377;-65
2024/04/01 03:40:12;;;;;;;1.52;1.23;;;11.70;90.50;;;;;;5035516;28;20060;-64
2024/04/01 03:42:38;;;;;;;1.40;1.30;;;11.70;90.50;;;;;;5039413;28;20382;-64
2024/04/01 03:45:06;;;;;;;2.13;1.38;;;11.70;90.40;;;;;;5031449;28;20105;-64
2024/04/01 03:47:32;;;;;;;2.53;1.40;;;11.70;90.40;;;;;;5029587;28;20060;-64
2024/04/01 03:49:58;;;;;;;1.50;1.40;;;11.70;90.40;;;;;;5033169;28;20026;-64
2024/04/01 03:52:24;;;;;;;2.38;1.52;;;11.60;90.30;;;;;;5024203;28;20037;-64
2024/04/01 03:54:49;;;;;;;1.88;1.50;;;11.70;90.40;;;;;;5037182;28;20567;-64
2024/04/01 03:57:16;;;;;;;2.42;1.30;;;11.60;90.40;;;;;;5029626;28;20026;-65
2024/04/01 03:59:42;;;;;;;1.73;1.58;;;11.60;90.40;;;;;;5030252;28;20021;-66
2024/04/01 04:02:07;;;;;;;1.60;1.40;;;11.60;90.60;;;;;;5035937;28;20032;-66
2024/04/01 04:04:34;;;;;;;1.23;1.10;;;11.60;90.30;;;;;;5037604;28;20537;-65
2024/04/01 04:06:59;;;;;;;1.35;1.15;;;11.60;90.30;;;;;;5032715;28;20018;-65
2024/04/01 04:09:26;;;;;;;2.65;1.60;;;11.60;90.30;;;;;;5031903;28;20092;-65
2024/04/01 04:11:52;;;;;;;1.88;1.50;;;11.60;90.30;;;;;;5033528;28;20108;-64
2024/04/01 04:14:25;;;;;;;1.52;1.27;;;11.50;90.30;;;;;;5038021;28;20394;-66
2024/04/01 04:16:51;;;;;;;1.77;1.50;;;11.50;90.40;;;;;;5025665;28;20033;-65
2024/04/01 04:19:18;;;;;;;1.38;1.23;;;11.50;90.40;;;;;;5031935;28;20025;-65
2024/04/01 04:21:44;;;;;;;1.48;1.15;;;11.50;90.40;;;;;;5031167;28;20026;-65
2024/04/01 04:24:11;;;;;;;1.33;1.02;;;11.50;90.40;;;;;;5033281;28;20033;-64
2024/04/01 04:26:37;;;;;;;1.20;1.10;;;11.50;90.40;;;;;;5025816;28;20045;-66
2024/04/01 04:29:02;;;;;;;1.70;1.38;;;11.50;90.40;;;;;;5030145;28;20526;-66
2024/04/01 04:31:28;;;;;;;1.40;1.20;;;11.50;90.40;;;;;;5036882;28;20149;-66
2024/04/01 04:33:54;;;;;;;1.85;1.30;;;11.50;90.40;;;;;;5029106;28;20057;-66
2024/04/01 04:36:21;;;;;;;1.58;1.40;;;11.50;90.40;;;;;;5031606;28;20068;-66
2024/04/01 04:38:47;;;;;;;1.70;1.30;;;11.50;90.40;;;;;;5030821;28;20548;-66
2024/04/01 04:41:13;;;;;;;2.00;1.40;;;11.50;90.50;;;;;;5030803;28;20060;-66
2024/04/01 04:43:39;;;;;;;2.90;1.55;;;11.50;90.50;;;;;;5033138;28;20443;-65
2024/04/01 04:46:04;;;;;;;1.90;1.60;;;11.50;90.50;;;;;;5027046;28;20028;-66
2024/04/01 04:48:30;;;;;;;2.45;1.40;;;11.40;90.50;;;;;;5032391;28;20059;-66
2024/04/01 04:50:56;;;;;;;1.98;1.50;;;11.40;90.50;;;;;;5036360;28;20144;-65
2024/04/01 04:53:23;;;;;;;2.85;1.60;;;11.40;90.50;;;;;;5032788;28;20033;-65
2024/04/01 04:55:49;;;;;;;1.33;1.20;;;11.40;90.50;;;;;;5035213;28;20070;-66
2024/04/01 04:58:16;;;;;;;2.05;1.50;;;11.40;90.50;;;;;;5039181;28;20112;-65
2024/04/01 05:00:41;;;;;;;1.98;1.38;;;11.50;90.50;;;;;;5030251;28;20446;-65
2024/04/01 05:03:07;;;;;;;2.20;1.40;;;11.50;90.50;;;;;;5027827;28;20021;-66
2024/04/01 05:05:34;;;;;;;2.38;1.80;;;11.50;90.50;;;;;;5033124;28;20029;-66
2024/04/01 05:08:03;;;;;;;2.78;1.70;;;11.40;90.50;;;;;;5030286;28;20029;-65
2024/04/01 05:10:30;;;;;;;1.58;1.48;;;11.40;90.60;;;;;;5028353;28;20025;-66
2024/04/01 05:12:56;;;;;;;2.05;1.50;;;11.40;90.60;;;;;;5034425;28;20108;-65
2024/04/01 05:15:22;;;;;;;3.05;1.40;;;11.40;90.60;;;;;;5036793;28;20168;-65
2024/04/01 05:17:48;;;;;;;1.60;1.30;;;11.40;90.70;;;;;;5035936;28;20017;-64
2024/04/01 05:20:14;;;;;;;1.17;1.08;;;11.40;90.60;;;;;;5035029;28;20037;-65
2024/04/01 05:22:39;;;;;;;1.48;1.10;;;11.40;90.60;;;;;;5028054;28;20013;-65
2024/04/01 05:25:05;;;;;;;1.17;1.05;;;11.50;90.60;;;;;;5037486;28;20207;-65
2024/04/01 05:27:31;;;;;;;1.95;1.10;;;11.50;90.50;;;;;;5027090;28;20107;-65
2024/04/01 05:30:04;;;;;;;1.10;1.00;;;11.50;90.50;;;;;;5030446;28;20025;-64
2024/04/01 05:32:33;;;;;;;1.20;0.80;;;11.50;90.50;;;;;;5035300;28;20029;-64
2024/04/01 05:35:00;;;;;;;1.73;0.90;;;11.50;90.50;;;;;;5044425;28;20029;-65
2024/04/01 05:37:27;;;;;;;1.10;1.00;;;11.50;90.50;;;;;;5029834;28;20741;-65
2024/04/01 05:39:53;;;;;;;1.20;1.10;;;11.60;90.60;;;;;;5031762;28;20037;-65
2024/04/01 05:42:21;;;;;;;0.82;0.82;;;11.50;90.50;;;;;;5027941;28;20496;-64
2024/04/01 05:44:47;;;;;;;1.85;1.20;;;11.60;90.60;;;;;;5030464;28;20079;-64
2024/04/01 05:47:14;;;;;;;1.50;1.27;;;11.60;90.50;;;;;;5032917;28;20057;-65
2024/04/01 05:49:40;;;;;;;2.03;1.10;;;11.60;90.60;;;;;;5039340;28;20092;-64
2024/04/01 05:52:06;;;;;;;1.67;1.30;;;11.70;90.60;;;;;;5039778;28;20049;-65
2024/04/01 05:54:32;;;;;;;2.22;1.38;;;11.60;90.50;;;;;;5035888;28;20515;-65
2024/04/01 05:56:59;;;;;;;2.63;1.63;;;11.60;90.50;;;;;;5033618;28;20104;-65
2024/04/01 05:59:25;;;;;;;2.95;1.42;;;11.60;90.50;;;;;;5024820;28;20029;-64
2024/04/01 06:01:55;;;;;;;1.52;1.25;;;11.60;90.50;;;;;;5029715;28;20041;-64
2024/04/01 06:04:21;;;;;;;1.25;1.15;;;11.50;90.50;;;;;;5028872;28;20524;-64
2024/04/01 06:06:47;;;;;;;2.67;1.60;;;11.60;90.50;;;;;;5035441;28;20112;-65
2024/04/01 06:09:15;;;;;;;2.17;1.40;;;11.60;90.40;;;;;;5033843;28;20105;-64
2024/04/01 06:11:41;;;;;;;1.40;1.30;;;11.60;90.50;;;;;;5035613;28;20208;-63
2024/04/01 06:14:08;;;;;;;2.65;1.50;;;11.50;90.50;;;;;;5034549;28;20037;-63
2024/04/01 06:16:37;;;;;;;1.20;1.10;;;11.60;90.50;;;;;;5030214;28;20197;-64
2024/04/01 06:19:04;;;;;;;1.45;1.10;;;11.60;90.50;;;;;;5020345;28;20040;-64
2024/04/01 06:21:30;;;;;;;1.35;1.20;;;11.60;90.50;;;;;;5031348;28;20029;-64
2024/04/01 06:23:57;;;;;;;1.00;1.00;;;11.60;90.40;;;;;;5036813;28;20021;-64
2024/04/01 06:26:23;;;;;;;1.40;1.30;;;11.60;90.40;;;;;;5042805;28;20053;-65
2024/04/01 06:28:49;;;;;;;1.08;1.00;;;11.70;90.40;;;;;;5032339;28;20103;-64
2024/04/01 06:31:15;;;;;;;1.15;1.00;;;11.60;90.40;;;;;;5033149;28;20026;-65
2024/04/01 06:33:41;;;;;;;1.88;1.17;;;11.60;90.40;;;;;;5037369;28;20029;-65
2024/04/01 06:36:07;;;;;;;1.30;1.20;;;11.70;90.40;;;;;;5027443;28;20499;-65
2024/04/01 06:38:33;;;;;;;1.63;1.20;;;11.60;90.40;;;;;;5035293;28;20041;-65
2024/04/01 06:40:59;;;;;;;1.27;1.15;;;11.60;90.40;;;;;;5032639;28;20033;-64
2024/04/01 06:43:25;;;;;;;1.50;1.40;;;11.70;90.40;;;;;;5031583;28;20024;-64
2024/04/01 06:45:58;;;;;;;2.13;1.92;;;11.60;90.40;;;;;;5040221;28;20029;-64
2024/04/01 06:48:24;;;;;;;2.00;1.70;;;11.50;90.50;;;;;;5034188;28;20052;-64
2024/04/01 06:50:50;;;;;;;1.95;1.40;;;11.50;90.60;;;;;;5037077;28;20396;-63
2024/04/01 06:53:17;;;;;;;2.70;1.60;;;11.50;90.60;;;;;;5033290;28;20090;-64
2024/04/01 06:55:52;;;;;;;2.33;1.83;;;11.50;90.60;;;;;;5033069;28;20113;-65
2024/04/01 06:58:18;;;;;;;3.90;2.20;;;11.50;90.60;;;;;;5033259;28;20694;-65
2024/04/01 07:00:44;;;;;;;1.67;1.58;;;11.50;90.70;;;;;;5028582;28;20028;-64
2024/04/01 07:03:09;;;;;;;1.33;1.23;;;11.50;90.70;;;;;;5050438;28;20198;-64
2024/04/01 07:05:35;;;;;;;1.80;1.42;;;11.60;90.70;;;;;;5031399;28;20057;-64
2024/04/01 07:08:01;;;;;;;2.45;1.55;;;11.60;90.70;;;;;;5025151;28;20030;-64
2024/04/01 07:10:27;;;;;;;2.55;1.80;;;11.60;90.70;;;;;;5027771;28;20087;-64
2024/04/01 07:12:54;;;;;;;2.42;1.75;;;11.60;90.60;;;;;;5029427;28;20021;-65
2024/04/01 07:15:20;;;;;;;2.40;2.10;;;11.60;90.60;;;;;;5026083;28;20065;-64
2024/04/01 07:17:46;;;;;;;3.03;1.70;;;11.50;90.70;;;;;;5030073;28;20709;-64
2024/04/01 07:20:12;;;;;;;1.98;1.77;;;11.50;90.80;;;;;;5028644;28;20152;-63
2024/04/01 07:22:38;;;;;;;2.30;1.90;;;11.50;90.80;;;;;;5031635;28;20032;-63
2024/04/01 07:25:05;;;;;;;3.60;1.90;;;11.50;90.80;;;;;;5030704;28;20028;-65
2024/04/01 07:27:35;;;;;;;2.15;1.80;;;11.50;90.90;;;;;;5035986;28;20029;-64
2024/04/01 07:30:04;;;;;;;2.10;1.67;;;11.50;91.00;;;;;;5030125;28;20388;-63
2024/04/01 07:32:31;;;;;;;1.60;1.50;;;11.50;91.00;;;;;;5030324;28;20033;-62
2024/04/01 07:34:57;;;;;;;2.22;1.50;;;11.50;91.00;;;;;;5036113;28;20028;-63
2024/04/01 07:37:23;;;;;;;1.83;1.30;;;11.60;90.90;;;;;;5047513;28;20040;-64
2024/04/01 07:39:48;;;;;;;2.55;1.70;;;11.60;90.90;;;;;;5031154;28;20116;-63
2024/04/01 07:42:14;;;;;;;2.05;1.52;;;11.60;90.90;;;;;;5036440;28;20021;-64
2024/04/01 07:44:40;;;;;;;1.20;1.10;;;11.60;90.90;;;;;;5029819;28;20014;-64
2024/04/01 07:47:06;;;;;;;1.25;1.00;;;11.70;90.90;;;;;;5031967;28;20032;-64
2024/04/01 07:49:33;;;;;;;1.48;1.10;;;11.70;90.90;;;;;;5028475;28;20116;-64
2024/04/01 07:51:58;;;;;;;1.25;0.90;;;11.70;90.80;;;;;;5029619;28;20029;-65
2024/04/01 07:54:26;;;;;;;1.25;1.15;;;11.70;91.00;;;;;;5030880;28;20029;-65
2024/04/01 07:56:52;;;;;;;0.82;0.80;;;11.80;90.90;;;;;;5038675;28;20179;-65
2024/04/01 07:59:17;;;;;;;1.02;0.93;;;11.80;90.90;;;;;;5035337;28;20068;-64
2024/04/01 08:01:43;;;;;;;1.45;0.98;;;11.80;90.90;;;;;;5038871;28;20441;-64
2024/04/01 08:04:08;;;;;;;1.08;1.00;;;11.80;90.80;;;;;;5048008;28;20025;-65
2024/04/01 08:06:34;;;;;;;2.13;0.90;;;11.80;90.80;;;;;;5034701;28;20059;-65
2024/04/01 08:09:00;;;;;;;1.25;0.90;;;11.90;90.90;;;;;;5031855;28;20483;-64
2024/04/01 08:11:25;;;;;;;1.35;1.05;;;11.90;90.80;;;;;;5020675;28;20280;-65
2024/04/01 08:13:51;;;;;;;0.77;0.77;;;12.00;90.80;;;;;;5032723;28;20047;-64
2024/04/01 08:16:16;;;;;;;0.93;0.90;;;12.00;90.80;;;;;;5031704;28;20029;-65
2024/04/01 08:18:42;;;;;;;1.10;1.00;;;12.00;90.80;;;;;;5031882;28;20035;-64
2024/04/01 08:21:08;;;;;;;1.33;0.90;;;12.00;90.80;;;;;;5031809;28;20109;-65
2024/04/01 08:23:33;;;;;;;0.95;0.80;;;12.10;90.80;;;;;;5031468;28;20026;-65
2024/04/01 08:25:59;;;;;;;1.23;1.00;;;12.10;90.70;;;;;;5019427;28;20026;-64
2024/04/01 08:28:24;;;;;;;0.82;0.80;;;12.10;90.70;;;;;;5028786;28;20391;-65
2024/04/01 08:30:50;;;;;;;2.42;1.13;;;12.20;90.70;;;;;;5032597;28;20075;-66
2024/04/01 08:33:17;;;;;;;1.42;1.23;;;12.20;90.70;;;;;;5028771;28;20029;-66
2024/04/01 08:35:43;;;;;;;1.23;1.13;;;12.10;90.70;;;;;;5028634;28;20063;-66
2024/04/01 08:38:09;;;;;;;1.50;1.13;;;12.10;90.70;;;;;;5024252;28;20458;-65
2024/04/01 08:40:55;;;;;;;1.42;1.30;;;12.10;90.70;;;;;;5022464;28;20124;-66
2024/04/01 08:44:09;;;;;;;1.83;1.50;;;12.10;90.80;;;;;;5028918;28;20091;-65
2024/04/01 08:46:40;;;;;;;1.38;1.27;;;12.10;90.80;;;;;;5018942;28;20120;-66
2024/04/01 08:49:11;;;;;;;1.35;1.25;;;12.10;91.10;;;;;;5021321;28;20030;-65
2024/04/01 08:51:37;;;;;;;3.03;1.40;;;12.10;90.80;;;;;;5027167;28;20499;-64
2024/04/01 08:54:04;;;;;;;2.60;2.38;;;12.20;90.70;;;;;;5027772;28;20233;-64
2024/04/01 08:56:31;;;;;;;2.17;1.80;;;12.10;90.70;;;;;;5027743;28;20044;-64
2024/04/01 08:58:57;;;;;;;2.03;1.70;;;12.10;90.70;;;;;;5028978;28;20028;-64
2024/04/01 09:01:23;;;;;;;2.03;1.50;;;12.20;90.80;;;;;;5023168;28;20123;-63
2024/04/01 09:03:49;;;;;;;2.50;1.90;;;12.20;90.70;;;;;;5025505;28;20087;-62
2024/04/01 09:06:16;;;;;;;2.80;2.10;;;12.10;90.70;;;;;;5025347;28;20112;-64
2024/04/01 09:08:42;;;;;;;2.17;1.70;;;12.10;90.70;;;;;;5029545;28;20022;-64
2024/04/01 09:11:08;;;;;;;2.80;2.33;;;12.10;90.80;;;;;;5026691;28;20447;-65
2024/04/01 09:13:34;;;;;;;3.17;2.50;;;12.10;90.70;;;;;;5026761;28;20479;-64
2024/04/01 09:16:00;;;;;;;2.60;2.10;;;12.10;90.80;;;;;;5028364;28;20033;-65
2024/04/01 09:18:29;;;;;;;2.47;2.22;;;12.10;90.80;;;;;;5028512;28;20313;-64
2024/04/01 09:20:57;;;;;;;2.17;1.70;;;12.10;90.80;;;;;;5021917;28;20407;-64
2024/04/01 09:23:23;;;;;;;2.25;2.00;;;12.20;90.70;;;;;;5024755;28;20111;-64
2024/04/01 09:25:50;;;;;;;2.53;1.75;;;12.20;90.70;;;;;;5024162;28;20556;-64
2024/04/01 09:28:15;;;;;;;3.15;2.45;;;12.20;90.70;;;;;;5025395;28;20026;-64
2024/04/01 09:30:41;;;;;;;2.00;1.80;;;12.30;90.70;;;;;;5026332;28;20022;-65
2024/04/01 09:33:07;;;;;;;2.53;1.70;;;12.30;90.70;;;;;;5027228;28;20383;-63
2024/04/01 09:35:33;;;;;;;1.80;1.58;;;12.30;90.60;;;;;;5029091;28;20203;-64
2024/04/01 09:37:58;;;;;;;1.67;1.50;;;12.40;90.60;;;;;;5025398;28;20532;-64
2024/04/01 09:40:24;;;;;;;1.65;1.50;;;12.50;90.60;;;;;;5012548;28;20033;-63
2024/04/01 09:42:57;;;;;;;1.38;1.27;;;12.50;90.50;;;;;;5018803;28;20250;-64
2024/04/01 09:45:23;;;;;;;1.58;1.48;;;12.50;90.50;;;;;;5022100;28;20171;-64
2024/04/01 09:47:49;;;;;;;1.40;1.30;;;12.50;90.50;;;;;;5021881;28;20089;-64
2024/04/01 09:50:16;;;;;;;1.40;1.27;;;12.50;90.50;;;;;;5023023;28;20095;-65
2024/04/01 09:52:41;;;;;;;1.60;1.50;;;12.50;90.50;;;;;;5024942;28;20021;-64
2024/04/01 09:55:13;;;;;;;1.35;1.25;;;12.60;90.50;;;;;;5025605;28;20116;-65
2024/04/01 09:57:57;;;;;;;1.90;1.58;;;12.60;90.40;;;;;;5022025;28;20045;-65
2024/04/01 10:00:32;;;;;;;2.22;1.80;;;12.50;90.40;;;;;;5025313;28;20120;-64
2024/04/01 10:03:24;;;;;;;1.73;1.52;;;12.50;90.50;;;;;;5024867;28;20034;-64
2024/04/01 10:06:28;;;;;;;2.03;1.40;;;12.50;90.50;;;;;;5015035;28;20107;-65
2024/04/01 10:09:17;;;;;;;1.50;1.40;;;12.60;90.60;;;;;;5024856;28;20033;-64
2024/04/01 10:11:48;;;;;;;1.30;1.20;;;12.60;90.60;;;;;;5027973;28;20054;-64
2024/04/01 10:14:41;;;;;;;1.30;1.20;;;12.60;90.60;;;;;;5024275;28;20450;-64
2024/04/01 10:17:22;;;;;;;1.55;1.30;;;12.60;90.60;;;;;;5026517;28;20038;-65
2024/04/01 10:19:56;;;;;;;1.27;1.17;;;12.70;90.60;;;;;;5027926;28;20033;-65
2024/04/01 10:22:44;;;;;;;1.50;1.17;;;12.70;90.50;;;;;;5024962;28;20049;-64
2024/04/01 10:25:39;;;;;;;1.40;1.25;;;12.80;90.50;;;;;;5029990;28;20038;-65
2024/04/01 10:28:26;;;;;;;1.50;1.40;;;12.80;90.50;;;;;;5026968;28;20496;-64
2024/04/01 10:31:08;;;;;;;1.38;1.10;;;12.80;90.50;;;;;;5028961;28;20033;-64
2024/04/01 10:33:50;;;;;;;1.30;1.17;;;12.80;90.50;;;;;;5028626;28;20418;-64
2024/04/01 10:36:55;;;;;;;2.63;1.90;;;12.80;90.50;;;;;;5025812;28;20434;-64
2024/04/01 10:39:48;;;;;;;1.75;1.65;;;12.80;90.50;;;;;;5026038;28;20072;-64
2024/04/01 10:42:32;;;;;;;1.75;1.45;;;12.70;90.50;;;;;;5029845;28;20025;-63
2024/04/01 10:45:38;;;;;;;1.67;1.35;;;12.70;90.50;;;;;;5027293;28;20040;-63
2024/04/01 10:48:20;;;;;;;2.85;2.08;;;12.70;90.50;;;;;;5028234;28;20067;-63
2024/04/01 10:50:51;;;;;;;;;;;12.70;90.50;;;;;;5028821;28;20121;-64
2024/04/01 10:53:58;;;;;;;1.53;1.43;;;12.70;90.50;;;;;;5026235;28;20379;-64
2024/04/01 10:57:00;;;;;;;1.83;1.60;;;12.70;90.50;;;;;;5014897;28;20766;-64
2024/04/01 10:59:34;;;;;;;1.90;1.70;;;12.80;90.50;;;;;;5029622;28;20037;-64
2024/04/01 11:02:32;;;;;;;2.33;1.95;;;12.80;90.40;;;;;;5027221;28;20032;-64
2024/04/01 11:05:06;;;;;;;1.88;1.60;;;12.80;90.40;;;;;;5020387;28;20033;-64
2024/04/01 11:08:06;;;;;;;1.75;1.65;;;12.70;90.30;;;;;;5027655;28;20033;-65
2024/04/01 11:10:50;;;;;;;2.10;1.90;;;12.80;90.40;;;;;;5027471;28;20108;-66
2024/04/01 11:13:20;;;;;;;3.42;2.20;;;12.90;90.30;;;;;;5026021;28;20040;-66
2024/04/01 11:15:54;;;;;;;2.53;2.13;;;12.90;90.30;;;;;;5025484;28;20026;-65
2024/04/01 11:18:38;;;;;;;2.13;1.65;;;12.90;90.20;;;;;;5030257;28;20032;-64
2024/04/01 11:21:29;;;;;;;2.10;1.80;;;12.90;90.20;;;;;;5025659;28;20033;-64
2024/04/01 11:23:59;;;;;;;1.83;1.70;;;12.90;90.20;;;;;;5026879;28;20022;-65
2024/04/01 11:26:54;;;;;;;2.92;2.40;;;12.80;90.20;;;;;;5026159;28;20383;-64
2024/04/01 11:29:40;;;;;;;2.22;1.80;;;12.70;90.30;;;;;;5025666;28;20025;-64
2024/04/01 11:32:11;;;;;;;2.30;2.10;;;12.80;90.40;;;;;;5025046;28;20029;-65
2024/04/01 11:35:06;;;;;;;3.42;2.70;;;12.80;90.60;;;;;;5026943;28;20072;-65
2024/04/01 11:38:05;;;;;;;3.63;2.60;;;12.80;90.30;;;;;;5027606;28;20057;-65
2024/04/01 11:40:35;;;;;;;3.03;2.15;;;12.80;90.30;;;;;;5024331;28;20037;-64
2024/04/01 11:43:06;;;;;;;2.17;1.98;;;12.80;90.30;;;;;;5022997;28;20365;-65
2024/04/01 11:45:36;;;;;;;3.00;2.25;;;12.80;90.30;;;;;;5028327;28;20025;-65
2024/04/01 11:48:03;;;;;;;3.25;2.13;;;12.70;90.30;;;;;;5026750;28;20104;-65
2024/04/01 11:50:28;;;;;;;4.00;2.47;;;12.70;90.30;;;;;;5027915;28;20034;-66
2024/04/01 11:53:01;;;;;;;3.10;2.17;;;12.70;90.30;;;;;;5028528;28;20484;-65
2024/04/01 11:55:27;;;;;;;3.00;2.70;;;12.70;90.30;;;;;;5030205;28;20041;-65
2024/04/01 11:57:54;;;;;;;2.20;2.00;;;12.80;90.30;;;;;;5026975;28;20037;-67
2024/04/01 12:00:19;;;;;;;4.18;2.50;;;12.80;90.20;;;;;;5021193;28;20049;-64
2024/04/01 12:02:56;;;;;;;3.30;1.98;;;12.90;90.20;;;;;;5024145;28;20468;-65
2024/04/01 12:05:22;;;;;;;2.60;1.90;;;12.90;90.10;;;;;;5026621;28;20028;-65
2024/04/01 12:07:51;;;;;;;3.20;2.10;;;13.00;90.10;;;;;;5026606;28;20030;-66
2024/04/01 12:10:17;;;;;;;2.92;2.00;;;13.00;90.00;;;;;;5022701;28;20037;-66
2024/04/01 12:12:46;;;;;;;2.63;2.20;;;13.10;89.90;;;;;;5025011;28;20021;-66
2024/04/01 12:15:21;;;;;;;2.45;1.80;;;13.10;89.50;;;;;;5023597;28;20033;-66
2024/04/01 12:17:49;;;;;;;2.72;2.13;;;13.10;89.50;;;;;;5023500;28;20061;-66
2024/04/01 12:20:15;;;;;;;4.07;2.38;;;13.20;89.20;;;;;;5026641;28;20041;-64
2024/04/01 12:22:41;;;;;;;2.28;1.60;;;13.30;89.20;;;;;;5023842;28;20024;-66
2024/04/01 12:25:15;;;;;;;3.55;1.60;;;13.50;89.10;;;;;;5026266;28;20556;-65
2024/04/01 12:27:43;;;;;;;2.60;1.52;;;13.50;88.60;;;;;;5019857;28;20858;-65
2024/04/01 12:30:09;;;;;;;2.08;1.30;;;13.60;88.20;;;;;;5025110;28;20021;-66
2024/04/01 12:32:43;;;;;;;2.47;1.60;;;13.70;88.10;;;;;;5024212;28;20025;-66
2024/04/01 12:35:11;;;;;;;2.15;1.30;;;13.70;87.70;;;;;;5023844;28;20108;-66
2024/04/01 12:37:41;;;;;;;2.70;1.30;;;13.70;87.70;;;;;;5025240;28;20029;-66
2024/04/01 12:40:08;;;;;;;2.15;1.38;;;13.80;87.50;;;;;;5021080;28;20022;-65
2024/04/01 12:42:36;;;;;;;2.33;1.23;;;14.00;87.20;;;;;;5025140;28;20068;-66
2024/04/01 12:45:05;;;;;;;3.33;1.65;;;14.10;86.80;;;;;;5021869;28;20029;-65
2024/04/01 12:47:33;;;;;;;1.30;1.20;;;14.10;86.10;;;;;;5023715;28;20033;-65
2024/04/01 12:50:01;;;;;;;1.83;1.10;;;14.20;86.00;;;;;;5025223;28;20034;-67
2024/04/01 12:52:41;;;;;;;1.42;1.02;;;14.10;85.70;;;;;;5025622;28;20030;-65
2024/04/01 12:55:23;;;;;;;3.97;1.67;;;14.10;85.60;;;;;;5028279;28;20025;-65
2024/04/01 12:57:55;;;;;;;2.25;1.48;;;14.00;85.40;;;;;;5020938;28;20025;-65